Time;durP1;ratioP1;P1;durP2;ratioP2;P2;SDS_P1;SDS_P2;PMS_P1;PMS_P2;Temp;Humidity;BMP_temperature;BMP_pressure;BME280_temperature;BME280_humidity;BME280_pressure;Samples;Min_cycle;Max_cycle;Signal;HPM_P1;HPM_P2
2021/02/02 00:02:36;;;;;;;0.70;0.70;;;;;;;4.47;88.76;95644.28;299395;202;63005;-68
2021/02/02 00:07:37;;;;;;;0.60;0.60;;;;;;;4.71;85.65;95645.91;299395;232;63009;-65
2021/02/02 00:12:38;;;;;;;0.60;0.60;;;;;;;4.55;nan;95663.25;299396;225;63005;-66
2021/02/02 00:17:39;;;;;;;0.60;0.60;;;;;;;4.29;87.57;95665.41;299396;265;63009;-65
2021/02/02 00:22:41;;;;;;;0.60;0.60;;;;;;;4.27;87.91;95670.25;299396;254;63004;-66
2021/02/02 00:27:44;;;;;;;0.60;0.60;;;;;;;4.18;88.76;95679.19;299396;203;63009;-65
2021/02/02 00:32:46;;;;;;;0.70;0.70;;;;;;;4.24;88.86;95699.53;299396;249;63005;-65
2021/02/02 00:37:47;;;;;;;0.70;0.70;;;;;;;4.42;87.24;95709.59;299396;231;63009;-67
2021/02/02 00:42:49;;;;;;;0.60;0.60;;;;;;;4.28;87.58;95730.13;299396;202;63000;-65
2021/02/02 00:47:52;;;;;;;0.70;0.70;;;;;;;4.19;88.44;95731.78;299396;216;63009;-67
2021/02/02 00:52:53;;;;;;;0.70;0.70;;;;;;;4.20;88.25;95725.34;299396;206;63004;-65
2021/02/02 00:57:55;;;;;;;0.70;0.70;;;;;;;4.17;88.40;95725.91;299397;245;63009;-66
2021/02/02 01:03:01;;;;;;;0.60;0.60;;;;;;;4.15;88.24;95736.16;299397;222;63005;-66
2021/02/02 01:08:03;;;;;;;0.70;0.70;;;;;;;4.37;86.04;95749.94;299396;213;63008;-64
2021/02/02 01:13:11;;;;;;;0.60;0.60;;;;;;;4.23;87.12;95746.25;299396;218;63004;-66
2021/02/02 01:18:36;;;;;;;0.60;0.60;;;;;;;4.11;88.23;95732.41;299396;324;63009;-67
2021/02/02 01:23:42;;;;;;;0.60;0.60;;;;;;;4.01;88.42;95733.28;299396;203;63004;-67
2021/02/02 01:28:43;;;;;;;0.60;0.60;;;;;;;4.00;88.46;95737.03;299396;198;63009;-66
2021/02/02 01:33:44;;;;;;;0.70;0.70;;;;;;;3.99;88.83;95724.72;299396;275;63005;-66
2021/02/02 01:38:45;;;;;;;0.70;0.70;;;;;;;4.02;89.12;95735.69;299396;253;63008;-66
2021/02/02 01:43:48;;;;;;;0.60;0.60;;;;;;;4.12;88.55;95744.75;299396;222;63004;-67
2021/02/02 01:48:53;;;;;;;0.70;0.70;;;;;;;4.44;86.66;95741.56;299396;219;63009;-70
2021/02/02 01:54:15;;;;;;;0.70;0.70;;;;;;;4.52;86.57;95771.28;299395;196;64008;-68
2021/02/02 01:59:23;;;;;;;0.60;0.60;;;;;;;4.60;86.33;95780.63;299396;228;63009;-66
2021/02/02 02:04:24;;;;;;;0.60;0.60;;;;;;;4.79;84.75;95799.53;299395;204;63005;-65
2021/02/02 02:09:25;;;;;;;0.70;0.70;;;;;;;4.56;85.37;95788.44;299395;228;63009;-65
2021/02/02 02:14:50;;;;;;;0.60;0.60;;;;;;;4.76;84.11;95784.78;299395;212;63004;-67
2021/02/02 02:20:18;;;;;;;0.60;0.60;;;;;;;4.78;83.55;95784.50;299395;220;63009;-64
2021/02/02 02:25:50;;;;;;;0.70;0.70;;;;;;;4.57;85.25;95790.03;299395;252;63009;-67
2021/02/02 02:30:59;;;;;;;0.60;0.60;;;;;;;4.61;84.75;95784.91;299395;305;63008;-62
2021/02/02 02:36:05;;;;;;;0.60;0.60;;;;;;;4.57;85.11;95797.28;299395;204;63004;-66
2021/02/02 02:41:13;;;;;;;0.70;0.70;;;;;;;4.59;84.29;95793.25;299395;294;63009;-69
2021/02/02 02:46:22;;;;;;;0.60;0.60;;;;;;;4.46;85.89;95796.59;299395;211;63005;-69
2021/02/02 02:51:25;;;;;;;0.60;0.60;;;;;;;4.38;86.54;95784.56;299395;223;63009;-64
2021/02/02 02:56:30;;;;;;;0.70;0.70;;;;;;;4.40;86.32;95784.28;299395;230;63005;-66
2021/02/02 03:01:36;;;;;;;0.60;0.60;;;;;;;4.33;86.36;95789.97;299395;220;63009;-68
2021/02/02 03:06:38;;;;;;;0.60;0.60;;;;;;;4.28;86.44;95792.69;299395;203;63004;-67
2021/02/02 03:11:41;;;;;;;0.70;0.70;;;;;;;4.18;87.10;95786.56;299395;233;63009;-68
2021/02/02 03:16:43;;;;;;;0.60;0.60;;;;;;;4.06;87.12;95783.44;299395;320;63005;-67
2021/02/02 03:22:17;;;;;;;0.60;0.60;;;;;;;4.00;87.08;95778.09;299395;221;63009;-68
2021/02/02 03:27:30;;;;;;;0.62;0.62;;;;;;;4.17;86.40;95779.59;299395;204;63004;-71
2021/02/02 03:32:35;;;;;;;0.70;0.70;;;;;;;4.13;86.40;95789.31;299395;222;63020;-69
2021/02/02 03:37:40;;;;;;;0.60;0.60;;;;;;;4.04;86.85;95781.84;299395;245;63004;-71
2021/02/02 03:42:46;;;;;;;0.70;0.70;;;;;;;4.05;86.62;95782.66;299417;216;63009;-68
2021/02/02 03:47:52;;;;;;;0.70;0.70;;;;;;;3.98;87.02;95782.16;299395;208;63005;-68
2021/02/02 03:53:31;;;;;;;0.70;0.70;;;;;;;3.99;86.58;95784.56;299395;197;63008;-68
2021/02/02 03:58:47;;;;;;;0.70;0.70;;;;;;;3.87;87.58;95784.06;299395;197;63004;-67
2021/02/02 04:03:49;;;;;;;0.70;0.70;;;;;;;3.86;88.13;95782.47;299417;289;63009;-68
2021/02/02 04:08:54;;;;;;;0.60;0.60;;;;;;;3.86;88.03;95793.22;299395;203;63005;-69
2021/02/02 04:14:29;;;;;;;0.60;0.60;;;;;;;3.94;87.80;95787.25;299395;206;63009;-70
2021/02/02 04:19:34;;;;;;;0.70;0.70;;;;;;;3.99;87.50;95794.50;299395;236;63004;-68
2021/02/02 04:24:40;;;;;;;0.70;0.70;;;;;;;3.98;87.91;95799.06;299395;238;63009;-69
2021/02/02 04:29:42;;;;;;;0.70;0.70;;;;;;;4.10;87.48;95806.78;299395;281;63004;-70
2021/02/02 04:34:43;;;;;;;0.70;0.70;;;;;;;4.20;87.12;95803.19;299395;285;63009;-71
2021/02/02 04:39:47;;;;;;;0.70;0.70;;;;;;;4.31;85.89;95810.91;299395;196;63005;-69
2021/02/02 04:44:53;;;;;;;0.70;0.70;;;;;;;4.19;86.32;95810.47;299417;212;63008;-69
2021/02/02 04:50:36;;;;;;;0.70;0.70;;;;;;;4.21;86.26;95799.44;299395;198;63004;-56
2021/02/02 04:55:37;;;;;;;0.70;0.70;;;;;;;4.07;87.55;95806.53;299395;272;63009;-70
2021/02/02 05:01:01;;;;;;;0.60;0.60;;;;;;;3.97;87.75;95797.44;299395;202;63005;-69
2021/02/02 05:06:49;;;;;;;0.60;0.60;;;;;;;4.00;88.40;95799.56;299395;199;63009;-69
2021/02/02 05:12:41;;;;;;;0.60;0.60;;;;;;;4.00;87.97;95796.91;299395;214;63004;-68
2021/02/02 05:18:14;;;;;;;0.70;0.70;;;;;;;4.00;88.27;95807.63;299395;231;63009;-68
2021/02/02 05:23:42;;;;;;;0.60;0.60;;;;;;;4.02;88.43;95800.09;299395;204;63005;-72
2021/02/02 05:28:50;;;;;;;0.70;0.70;;;;;;;4.02;87.63;95813.53;299395;308;63009;-69
2021/02/02 05:34:20;;;;;;;0.70;0.70;;;;;;;3.99;87.96;95800.66;299395;199;63004;-68
2021/02/02 05:39:27;;;;;;;0.70;0.70;;;;;;;4.02;88.04;95802.00;299395;210;63005;-68
2021/02/02 05:44:46;;;;;;;0.70;0.70;;;;;;;4.02;88.10;95800.09;299395;210;63008;-68
2021/02/02 05:50:02;;;;;;;0.60;0.60;;;;;;;4.17;87.54;95795.69;299395;239;63004;-70
2021/02/02 05:55:05;;;;;;;0.60;0.60;;;;;;;4.29;86.95;95798.84;299395;237;63009;-70
2021/02/02 06:00:09;;;;;;;0.60;0.60;;;;;;;4.11;87.21;95791.47;299395;229;63005;-69
2021/02/02 06:05:18;;;;;;;0.60;0.60;;;;;;;4.07;88.05;95785.06;299439;244;63009;-69
2021/02/02 06:10:32;;;;;;;0.60;0.60;;;;;;;4.03;87.73;95785.59;299395;210;63005;-69
2021/02/02 06:15:36;;;;;;;0.70;0.70;;;;;;;4.06;87.72;95794.19;299395;213;63009;-70
2021/02/02 06:20:37;;;;;;;0.70;0.70;;;;;;;4.04;87.55;95827.47;299417;215;63004;-71
2021/02/02 06:25:43;;;;;;;0.70;0.70;;;;;;;4.00;87.28;95815.69;299395;228;63009;-69
2021/02/02 06:30:44;;;;;;;0.70;0.70;;;;;;;3.94;87.74;95806.06;299395;219;63010;-69
2021/02/02 06:35:44;;;;;;;0.60;0.60;;;;;;;4.06;87.63;95795.00;299395;244;63009;-70
2021/02/02 06:41:01;;;;;;;0.60;0.60;;;;;;;4.17;86.92;95801.87;299395;196;63005;-68
2021/02/02 06:46:15;;;;;;;0.60;0.60;;;;;;;4.12;87.30;95810.00;299395;220;63009;-56
2021/02/02 06:51:28;;;;;;;0.70;0.70;;;;;;;4.10;87.06;95796.03;299417;214;63000;-68
2021/02/02 06:56:57;;;;;;;0.70;0.70;;;;;;;4.16;86.76;95800.28;299395;223;63009;-70
2021/02/02 07:02:45;;;;;;;0.60;0.60;;;;;;;4.14;86.95;95799.78;299395;233;63005;-69
2021/02/02 07:08:26;;;;;;;0.70;0.70;;;;;;;4.15;86.97;95792.53;299395;236;63009;-69
2021/02/02 07:13:55;;;;;;;0.60;0.60;;;;;;;4.21;86.56;95799.44;299395;246;63004;-70
2021/02/02 07:19:23;;;;;;;0.70;0.70;;;;;;;4.50;85.10;95796.84;299395;257;63009;-73
2021/02/02 07:24:54;;;;;;;0.70;0.70;;;;;;;4.50;84.59;95799.53;299395;221;63005;-69
2021/02/02 07:30:06;;;;;;;0.60;0.60;;;;;;;4.61;84.59;95791.09;299395;291;63005;-70
2021/02/02 07:35:17;;;;;;;0.60;0.60;;;;;;;4.53;84.37;95789.00;299395;212;63004;-67
2021/02/02 07:40:20;;;;;;;0.70;0.70;;;;;;;4.50;84.83;95778.84;299395;236;63009;-68
2021/02/02 07:45:54;;;;;;;0.70;0.70;;;;;;;4.58;84.59;95775.53;299394;219;64009;-72
2021/02/02 07:50:59;;;;;;;0.70;0.70;;;;;;;4.67;84.36;95768.47;299395;202;63008;-69
2021/02/02 07:56:02;;;;;;;0.70;0.70;;;;;;;4.67;84.42;95768.47;299417;206;63004;-70
2021/02/02 08:01:23;;;;;;;0.70;0.70;;;;;;;4.79;84.19;95772.66;299395;196;63018;-69
2021/02/02 08:06:31;;;;;;;0.70;0.70;;;;;;;4.80;84.30;95763.53;299395;214;63004;-70
2021/02/02 08:11:44;;;;;;;0.70;0.70;;;;;;;4.88;84.21;95741.37;299395;206;63009;-68
2021/02/02 08:17:00;;;;;;;0.60;0.60;;;;;;;4.85;84.72;95768.84;299395;268;63005;-70
2021/02/02 08:22:27;;;;;;;0.60;0.60;;;;;;;4.87;85.37;95750.53;299395;254;63009;-71
2021/02/02 08:27:37;;;;;;;0.70;0.70;;;;;;;5.00;84.45;95742.59;299395;227;63004;-70
2021/02/02 08:32:41;;;;;;;0.60;0.60;;;;;;;5.05;84.92;95739.87;299395;204;63009;-72
2021/02/02 08:37:46;;;;;;;0.60;0.60;;;;;;;5.08;85.62;95724.25;299417;233;63005;-68
2021/02/02 08:42:56;;;;;;;0.60;0.60;;;;;;;5.14;85.65;95718.53;299395;212;63008;-69
2021/02/02 08:48:10;;;;;;;0.70;0.70;;;;;;;5.13;86.96;95722.31;299395;222;63004;-71
2021/02/02 08:53:20;;;;;;;0.70;0.70;;;;;;;5.28;86.49;95722.12;299395;214;63009;-71
2021/02/02 08:58:28;;;;;;;0.60;0.60;;;;;;;5.25;87.49;95717.31;299395;262;63009;-70
2021/02/02 09:03:31;;;;;;;0.60;0.60;;;;;;;5.27;86.84;95707.06;299395;199;63009;-72
2021/02/02 09:08:35;;;;;;;0.70;0.70;;;;;;;5.42;87.01;95699.91;299395;196;63005;-70
2021/02/02 09:13:40;;;;;;;0.60;0.60;;;;;;;5.56;86.65;95698.09;299395;253;63009;-73
2021/02/02 09:18:52;;;;;;;0.60;0.60;;;;;;;5.57;86.96;95688.91;299395;259;63004;-58
2021/02/02 09:24:11;;;;;;;0.60;0.60;;;;;;;5.66;87.72;95695.25;299395;214;63009;-73
2021/02/02 09:29:19;;;;;;;0.70;0.70;;;;;;;5.82;86.86;95690.47;299395;202;63005;-73
2021/02/02 09:34:29;;;;;;;0.60;0.60;;;;;;;5.96;86.43;95688.66;299395;307;63009;-73
2021/02/02 09:39:44;;;;;;;0.60;0.60;;;;;;;6.05;86.03;95689.59;299395;231;63005;-68
2021/02/02 09:44:51;;;;;;;0.60;0.60;;;;;;;6.15;85.92;95678.69;299395;299;63009;-71
2021/02/02 09:49:52;;;;;;;0.60;0.60;;;;;;;6.28;85.27;95666.34;299395;213;63004;-56
2021/02/02 09:55:03;;;;;;;0.70;0.70;;;;;;;6.55;84.22;95669.13;299395;232;63009;-69
2021/02/02 10:00:32;;;;;;;0.60;0.60;;;;;;;6.67;84.09;95655.13;299395;293;63005;-69
2021/02/02 10:05:35;;;;;;;0.60;0.60;;;;;;;6.84;83.37;95652.66;299395;199;63019;-72
2021/02/02 10:10:37;;;;;;;0.68;0.68;;;;;;;6.99;82.78;95646.16;299395;218;63004;-70
2021/02/02 10:15:43;;;;;;;0.60;0.60;;;;;;;7.09;82.53;95642.47;299395;236;63009;-71
2021/02/02 10:20:46;;;;;;;0.62;0.62;;;;;;;7.03;82.68;95629.09;299395;222;63005;-70
2021/02/02 10:25:51;;;;;;;0.60;0.60;;;;;;;7.09;82.24;95608.22;299395;265;63029;-66
2021/02/02 10:30:54;;;;;;;0.60;0.60;;;;;;;7.07;82.98;95596.91;299395;199;63005;-73
2021/02/02 10:35:54;;;;;;;0.60;0.60;;;;;;;7.11;83.62;95576.34;299395;203;63009;-66
2021/02/02 10:40:56;;;;;;;0.60;0.60;;;;;;;7.01;84.25;95576.56;299395;210;63000;-73
2021/02/02 10:45:57;;;;;;;0.60;0.60;;;;;;;6.93;85.24;95569.97;299395;219;63009;-66
2021/02/02 10:50:58;;;;;;;0.60;0.60;;;;;;;6.98;85.97;95560.97;299395;221;63005;-66
2021/02/02 10:55:59;;;;;;;0.60;0.60;;;;;;;7.21;85.39;95557.25;299395;214;63009;-71
2021/02/02 11:01:00;;;;;;;0.60;0.60;;;;;;;7.24;85.59;95547.75;299395;210;63005;-71
2021/02/02 11:06:03;;;;;;;0.60;0.60;;;;;;;7.40;84.65;95541.69;299395;216;63009;-66
2021/02/02 11:11:07;;;;;;;0.60;0.60;;;;;;;7.54;84.24;95538.16;299395;206;63004;-69
2021/02/02 11:16:09;;;;;;;0.60;0.60;;;;;;;7.60;84.43;95536.94;299417;268;63009;-59
2021/02/02 11:21:10;;;;;;;0.60;0.60;;;;;;;7.70;84.10;95540.16;299395;239;63005;-66
2021/02/02 11:26:14;;;;;;;0.60;0.60;;;;;;;7.94;83.47;95523.66;299395;288;63008;-67
2021/02/02 11:31:15;;;;;;;0.60;0.60;;;;;;;7.99;82.99;95526.19;299395;372;63004;-68
2021/02/02 11:36:16;;;;;;;0.60;0.60;;;;;;;8.22;82.28;95526.19;299395;224;63020;-70
2021/02/02 11:41:17;;;;;;;0.60;0.60;;;;;;;8.35;82.42;95533.41;299395;196;63004;-73
2021/02/02 11:46:18;;;;;;;0.60;0.60;;;;;;;8.49;81.62;95539.53;299395;257;63009;-67
2021/02/02 11:51:19;;;;;;;0.60;0.60;;;;;;;8.53;81.30;95548.59;299395;305;63005;-69
2021/02/02 11:56:21;;;;;;;0.60;0.60;;;;;;;8.48;82.14;95547.94;299395;269;63008;-72
2021/02/02 12:01:21;;;;;;;0.60;0.60;;;;;;;8.48;81.18;95537.13;299395;208;63004;-69
2021/02/02 12:06:22;;;;;;;0.60;0.60;;;;;;;8.52;80.88;95532.69;299395;214;63009;-65
2021/02/02 12:11:24;;;;;;;0.60;0.60;;;;;;;8.56;81.18;95523.66;299395;220;63004;-67
2021/02/02 12:16:25;;;;;;;0.60;0.60;;;;;;;8.69;81.38;95530.03;299395;232;63009;-68
2021/02/02 12:21:26;;;;;;;0.60;0.60;;;;;;;8.76;81.55;95526.87;299395;233;63005;-69
2021/02/02 12:26:28;;;;;;;0.60;0.60;;;;;;;8.75;81.55;95512.56;299395;221;63008;-68
2021/02/02 12:31:31;;;;;;;0.60;0.60;;;;;;;8.70;82.51;95523.50;299395;274;63004;-65
2021/02/02 12:36:33;;;;;;;0.60;0.60;;;;;;;8.74;82.61;95525.28;299395;230;63009;-65
2021/02/02 12:41:34;;;;;;;0.50;0.50;;;;;;;8.85;82.38;95541.22;299395;332;63004;-69
2021/02/02 12:46:35;;;;;;;0.60;0.60;;;;;;;8.87;82.70;95528.97;299396;203;63009;-65
2021/02/02 12:51:36;;;;;;;0.60;0.60;;;;;;;8.87;82.51;95528.97;299396;197;63005;-64
2021/02/02 12:56:38;;;;;;;0.60;0.60;;;;;;;8.84;83.54;95524.19;299396;226;63008;-66
2021/02/02 13:01:39;;;;;;;0.60;0.60;;;;;;;8.89;83.20;95536.78;299396;239;63004;-66
2021/02/02 13:06:40;;;;;;;0.60;0.60;;;;;;;9.04;82.90;95539.03;299396;220;63009;-64
2021/02/02 13:11:44;;;;;;;0.60;0.60;;;;;;;8.98;83.84;95538.41;299396;317;63018;-63
2021/02/02 13:16:45;;;;;;;0.60;0.60;;;;;;;9.00;84.15;95543.50;299418;203;63009;-67
2021/02/02 13:21:47;;;;;;;0.60;0.60;;;;;;;9.05;83.37;95536.00;299395;207;64009;-66
2021/02/02 13:26:48;;;;;;;0.60;0.60;;;;;;;8.92;84.26;95553.19;299396;203;63009;-67
2021/02/02 13:31:49;;;;;;;0.60;0.60;;;;;;;9.00;84.86;95548.91;299397;198;63004;-57
2021/02/02 13:36:52;;;;;;;0.60;0.60;;;;;;;8.89;85.11;95555.72;299396;227;63009;-65
2021/02/02 13:41:55;;;;;;;0.60;0.60;;;;;;;9.01;85.22;95555.88;299397;247;63005;-66
2021/02/02 13:46:57;;;;;;;0.60;0.60;;;;;;;8.89;85.75;95566.53;299396;219;63009;-66
2021/02/02 13:51:58;;;;;;;0.60;0.60;;;;;;;8.95;85.39;95568.78;299396;299;63005;-62
2021/02/02 13:56:59;;;;;;;0.60;0.60;;;;;;;8.86;86.99;95578.78;299396;202;63009;-67
2021/02/02 14:02:01;;;;;;;0.50;0.50;;;;;;;8.76;87.28;95576.34;299396;196;63004;-67
2021/02/02 14:07:03;;;;;;;0.60;0.60;;;;;;;8.63;88.59;95569.97;299396;218;63009;-68
2021/02/02 14:12:05;;;;;;;0.60;0.60;;;;;;;8.55;89.16;95564.50;299397;252;63005;-68
2021/02/02 14:17:06;;;;;;;0.60;0.60;;;;;;;8.59;88.99;95560.09;299396;219;63009;-68
2021/02/02 14:22:07;;;;;;;0.60;0.60;;;;;;;8.54;89.84;95573.72;299396;225;63005;-69
2021/02/02 14:27:12;;;;;;;0.60;0.60;;;;;;;8.57;89.63;95573.91;299397;250;63009;-69
2021/02/02 14:32:13;;;;;;;0.60;0.60;;;;;;;8.54;89.54;95574.53;299397;214;63004;-68
2021/02/02 14:37:14;;;;;;;0.60;0.60;;;;;;;8.59;89.41;95581.72;299394;298;64009;-67
2021/02/02 14:42:16;;;;;;;0.60;0.60;;;;;;;8.62;89.67;95584.59;299395;287;63005;-62
2021/02/02 14:47:17;;;;;;;0.60;0.60;;;;;;;8.65;89.50;95586.69;299395;202;63009;-69
2021/02/02 14:52:18;;;;;;;0.60;0.60;;;;;;;8.60;90.09;95594.91;299395;245;63012;-68
2021/02/02 14:57:19;;;;;;;0.50;0.50;;;;;;;8.59;90.01;95587.91;299395;206;63009;-64
2021/02/02 15:02:20;;;;;;;0.60;0.60;;;;;;;8.62;89.59;95603.53;299395;243;63004;-69
2021/02/02 15:07:21;;;;;;;0.60;0.60;;;;;;;8.67;89.80;95597.94;299395;273;63009;-67
2021/02/02 15:12:22;;;;;;;0.60;0.60;;;;;;;8.67;89.93;95599.84;299395;209;63005;-62
2021/02/02 15:17:23;;;;;;;0.60;0.60;;;;;;;8.75;89.32;95596.41;299395;215;63009;-71
2021/02/02 15:22:25;;;;;;;0.60;0.60;;;;;;;8.81;89.05;95602.47;299395;217;63004;-68
2021/02/02 15:27:26;;;;;;;0.60;0.60;;;;;;;8.80;88.97;95608.97;299395;273;63009;-69
2021/02/02 15:32:27;;;;;;;0.60;0.60;;;;;;;8.77;88.92;95615.00;299395;206;63004;-69
2021/02/02 15:37:28;;;;;;;0.70;0.70;;;;;;;8.82;88.73;95609.47;299395;243;63009;-69
2021/02/02 15:42:29;;;;;;;0.60;0.60;;;;;;;8.86;88.29;95621.25;299395;212;63005;-68
2021/02/02 15:47:30;;;;;;;0.57;0.57;;;;;;;8.87;88.64;95620.94;299395;196;63008;-69
2021/02/02 15:52:31;;;;;;;0.60;0.60;;;;;;;8.92;87.25;95628.13;299395;293;63004;-67
2021/02/02 15:57:32;;;;;;;0.60;0.60;;;;;;;9.03;86.33;95634.84;299394;213;64013;-66
2021/02/02 16:02:33;;;;;;;0.60;0.60;;;;;;;9.12;85.47;95624.84;299395;198;63004;-66
2021/02/02 16:07:34;;;;;;;0.60;0.60;;;;;;;9.01;85.47;95626.22;299395;215;63009;-72
2021/02/02 16:12:44;;;;;;;0.60;0.60;;;;;;;8.89;86.10;95623.34;299463;221;64005;-66
2021/02/02 16:17:45;;;;;;;0.60;0.60;;;;;;;8.90;86.13;95641.97;299394;221;64008;-68
2021/02/02 16:22:46;;;;;;;0.60;0.60;;;;;;;8.85;86.66;95644.00;299395;240;63005;-69
2021/02/02 16:27:48;;;;;;;0.60;0.60;;;;;;;8.81;86.83;95660.06;299395;197;63009;-69
2021/02/02 16:32:53;;;;;;;0.60;0.60;;;;;;;8.77;87.12;95664.50;299395;206;63004;-68
2021/02/02 16:37:58;;;;;;;0.60;0.60;;;;;;;8.85;86.87;95666.44;299395;208;63009;-68
2021/02/02 16:42:59;;;;;;;0.50;0.50;;;;;;;8.82;87.43;95677.09;299395;226;63005;-64
2021/02/02 16:48:01;;;;;;;0.60;0.60;;;;;;;8.74;87.57;95692.97;299395;214;63008;-69
2021/02/02 16:53:03;;;;;;;0.60;0.60;;;;;;;8.79;87.67;95685.81;299395;242;63004;-70
2021/02/02 16:58:06;;;;;;;0.60;0.60;;;;;;;8.71;87.80;95688.16;299395;259;63009;-70
2021/02/02 17:03:09;;;;;;;0.60;0.60;;;;;;;8.68;87.72;95672.56;299395;206;63005;-57
2021/02/02 17:08:12;;;;;;;0.60;0.60;;;;;;;8.49;88.29;95680.09;299417;224;63009;-57
2021/02/02 17:13:13;;;;;;;0.60;0.60;;;;;;;8.53;89.12;95697.28;299395;211;63005;-70
2021/02/02 17:18:19;;;;;;;0.60;0.60;;;;;;;8.44;89.66;95677.50;299395;242;63009;-68
2021/02/02 17:23:20;;;;;;;0.60;0.60;;;;;;;8.48;90.01;95699.31;299395;219;63004;-57
2021/02/02 17:28:21;;;;;;;0.60;0.60;;;;;;;8.56;90.02;95691.28;299395;214;63009;-70
2021/02/02 17:33:22;;;;;;;0.60;0.60;;;;;;;8.51;90.56;95715.72;299395;212;63005;-71
2021/02/02 17:38:24;;;;;;;0.60;0.60;;;;;;;8.53;90.47;95707.31;299395;261;63009;-70
2021/02/02 17:43:25;;;;;;;0.60;0.60;;;;;;;8.53;90.24;95705.41;299395;208;63005;-69
2021/02/02 17:48:26;;;;;;;0.60;0.60;;;;;;;8.54;90.28;95709.72;299395;213;63009;-57
2021/02/02 17:53:28;;;;;;;0.60;0.60;;;;;;;8.56;89.84;95714.81;299395;218;63004;-69
2021/02/02 17:58:29;;;;;;;0.60;0.60;;;;;;;8.52;89.89;95722.72;299395;231;63009;-70
2021/02/02 18:03:32;;;;;;;0.60;0.60;;;;;;;8.50;89.65;95718.75;299395;228;63005;-72
2021/02/02 18:08:33;;;;;;;0.60;0.60;;;;;;;8.47;89.54;95724.75;299395;212;63009;-57
2021/02/02 18:13:34;;;;;;;0.60;0.60;;;;;;;8.48;89.73;95716.34;299395;220;63005;-70
2021/02/02 18:18:34;;;;;;;0.50;0.50;;;;;;;8.44;89.77;95728.06;299395;207;63009;-57
2021/02/02 18:23:35;;;;;;;0.60;0.60;;;;;;;8.53;88.79;95742.47;299395;203;63004;-70
2021/02/02 18:28:37;;;;;;;0.60;0.60;;;;;;;8.54;88.65;95742.16;299395;221;63009;-70
2021/02/02 18:33:38;;;;;;;0.60;0.60;;;;;;;8.59;88.14;95750.16;299395;202;63009;-58
2021/02/02 18:38:39;;;;;;;0.60;0.60;;;;;;;8.59;88.19;95758.25;299395;246;63009;-68
2021/02/02 18:43:40;;;;;;;0.50;0.50;;;;;;;8.73;87.64;95750.84;299395;209;63005;-68
2021/02/02 18:48:41;;;;;;;0.60;0.60;;;;;;;8.73;87.59;95750.84;299396;228;63009;-71
2021/02/02 18:53:42;;;;;;;0.60;0.60;;;;;;;8.77;87.78;95750.25;299396;202;63004;-68
2021/02/02 18:58:43;;;;;;;0.60;0.60;;;;;;;8.72;87.71;95749.25;299396;209;63009;-67
2021/02/02 19:03:44;;;;;;;0.50;0.50;;;;;;;8.77;87.53;95748.34;299396;205;63005;-69
2021/02/02 19:08:45;;;;;;;0.60;0.60;;;;;;;8.71;87.54;95753.06;299396;197;63009;-67
2021/02/02 19:13:46;;;;;;;0.60;0.60;;;;;;;8.61;87.92;95750.63;299396;275;63005;-67
2021/02/02 19:18:47;;;;;;;0.60;0.60;;;;;;;8.57;87.92;95756.97;299396;248;63009;-68
2021/02/02 19:23:49;;;;;;;0.60;0.60;;;;;;;8.50;88.43;95773.59;299396;227;63004;-66
2021/02/02 19:28:50;;;;;;;0.60;0.60;;;;;;;8.63;87.51;95780.88;299396;196;63009;-68
2021/02/02 19:33:51;;;;;;;0.60;0.60;;;;;;;8.53;88.12;95780.31;299397;215;63012;-68
2021/02/02 19:38:52;;;;;;;0.60;0.60;;;;;;;8.50;88.87;95773.59;299397;231;63009;-69
2021/02/02 19:43:53;;;;;;;0.60;0.60;;;;;;;8.48;88.89;95781.22;299396;219;63005;-65
2021/02/02 19:48:56;;;;;;;0.50;0.50;;;;;;;8.44;89.05;95791.03;299396;202;63009;-67
2021/02/02 19:53:57;;;;;;;0.60;0.60;;;;;;;8.47;89.32;95801.25;299396;223;63004;-66
2021/02/02 19:58:58;;;;;;;0.60;0.60;;;;;;;8.50;88.68;95811.44;299396;250;63009;-62
2021/02/02 20:04:00;;;;;;;0.60;0.60;;;;;;;8.43;88.79;95802.16;299396;214;63005;-65
2021/02/02 20:09:01;;;;;;;0.60;0.60;;;;;;;8.53;88.77;95786.50;299396;202;63008;-65
2021/02/02 20:14:02;;;;;;;0.60;0.60;;;;;;;8.44;89.05;95785.63;299396;197;63004;-67
2021/02/02 20:19:03;;;;;;;0.50;0.50;;;;;;;8.49;89.12;95799.03;299396;218;63009;-65
2021/02/02 20:24:05;;;;;;;2.15;2.05;;;;;;;8.30;89.36;95809.19;299396;196;63004;-69
2021/02/02 20:29:06;;;;;;;0.60;0.60;;;;;;;8.22;89.64;95816.09;299397;223;63009;-67
2021/02/02 20:34:08;;;;;;;0.60;0.60;;;;;;;8.24;89.27;95813.09;299395;222;63005;-67
2021/02/02 20:39:09;;;;;;;0.60;0.60;;;;;;;8.16;89.99;95827.31;299395;265;63008;-67
2021/02/02 20:44:12;;;;;;;0.60;0.60;;;;;;;8.14;90.32;95819.53;299395;216;63004;-68
2021/02/02 20:49:13;;;;;;;0.60;0.60;;;;;;;8.09;90.71;95816.94;299395;202;63009;-68
2021/02/02 20:54:15;;;;;;;0.60;0.60;;;;;;;8.08;89.81;95824.22;299395;219;63004;-67
2021/02/02 20:59:16;;;;;;;0.60;0.60;;;;;;;8.16;89.18;95824.63;299395;237;63009;-66
2021/02/02 21:04:17;;;;;;;0.60;0.60;;;;;;;8.20;88.58;95822.91;299395;249;63005;-65
2021/02/02 21:09:19;;;;;;;0.50;0.50;;;;;;;8.19;88.95;95838.34;299395;204;63008;-68
2021/02/02 21:14:19;;;;;;;0.60;0.60;;;;;;;8.16;88.34;95832.72;299395;394;63004;-64
2021/02/02 21:19:21;;;;;;;0.60;0.60;;;;;;;8.19;88.25;95832.94;299395;202;63009;-67
2021/02/02 21:24:22;;;;;;;0.60;0.60;;;;;;;8.19;87.77;95838.34;299395;228;63005;-68
2021/02/02 21:29:25;;;;;;;0.60;0.60;;;;;;;8.22;87.52;95842.34;299395;250;63019;-68
2021/02/02 21:34:26;;;;;;;0.60;0.60;;;;;;;8.22;87.24;95842.34;299395;213;63005;-67
2021/02/02 21:39:29;;;;;;;0.60;0.60;;;;;;;8.22;87.07;95842.34;299395;224;63009;-67
2021/02/02 21:44:30;;;;;;;0.50;0.50;;;;;;;8.19;87.19;95834.81;299395;198;63004;-67
2021/02/02 21:49:32;;;;;;;0.60;0.60;;;;;;;8.12;87.39;95837.13;299395;212;63010;-67
2021/02/02 21:54:32;;;;;;;0.60;0.60;;;;;;;8.13;87.16;95850.34;299395;198;63008;-67
2021/02/02 21:59:33;;;;;;;0.60;0.60;;;;;;;8.08;87.62;95853.94;299395;204;63009;-68
2021/02/02 22:04:35;;;;;;;0.60;0.60;;;;;;;8.10;87.34;95853.66;299395;216;63005;-67
2021/02/02 22:09:36;;;;;;;0.60;0.60;;;;;;;8.08;87.27;95842.34;299395;213;63009;-58
2021/02/02 22:14:37;;;;;;;0.60;0.60;;;;;;;8.00;87.72;95835.75;299395;250;63004;-67
2021/02/02 22:19:37;;;;;;;0.60;0.60;;;;;;;8.05;86.96;95826.72;299395;196;63009;-68
2021/02/02 22:24:38;;;;;;;0.60;0.60;;;;;;;7.92;87.41;95844.56;299395;293;63005;-66
2021/02/02 22:29:40;;;;;;;0.60;0.60;;;;;;;7.85;88.25;95832.56;299395;198;63020;-68
2021/02/02 22:34:41;;;;;;;0.60;0.60;;;;;;;7.84;87.90;95837.16;299395;243;63005;-67
2021/02/02 22:39:42;;;;;;;0.50;0.50;;;;;;;7.73;88.63;95855.47;299395;240;63014;-67
2021/02/02 22:44:43;;;;;;;0.60;0.60;;;;;;;7.73;88.08;95851.97;299395;233;63004;-65
2021/02/02 22:49:44;;;;;;;0.60;0.60;;;;;;;7.75;88.64;95855.16;299395;218;63009;-67
2021/02/02 22:54:45;;;;;;;0.60;0.60;;;;;;;7.74;88.39;95870.56;299395;223;63005;-71
2021/02/02 22:59:46;;;;;;;0.50;0.50;;;;;;;7.77;88.46;95868.38;299395;196;63018;-68
2021/02/02 23:04:47;;;;;;;0.60;0.60;;;;;;;7.69;88.57;95875.25;299395;214;63004;-71
2021/02/02 23:09:48;;;;;;;0.60;0.60;;;;;;;7.67;89.01;95882.84;299395;278;63009;-67
2021/02/02 23:14:49;;;;;;;0.60;0.60;;;;;;;7.67;88.75;95888.25;299395;220;63004;-57
2021/02/02 23:19:50;;;;;;;0.60;0.60;;;;;;;7.65;88.88;95893.16;299395;227;63009;-68
2021/02/02 23:24:51;;;;;;;0.60;0.60;;;;;;;7.66;89.03;95890.16;299395;222;63005;-69
2021/02/02 23:29:52;;;;;;;0.60;0.60;;;;;;;7.62;89.38;95882.97;299395;204;63008;-69
2021/02/02 23:34:53;;;;;;;0.60;0.60;;;;;;;7.62;88.76;95880.28;299395;189;63011;-69
2021/02/02 23:39:54;;;;;;;0.50;0.50;;;;;;;7.61;89.31;95902.97;299395;242;63009;-56
2021/02/02 23:44:55;;;;;;;0.60;0.60;;;;;;;7.77;88.19;95893.47;299395;198;63004;-65
2021/02/02 23:49:56;;;;;;;0.60;0.60;;;;;;;7.77;88.83;95881.88;299395;211;63019;-65
2021/02/02 23:54:57;;;;;;;0.60;0.60;;;;;;;7.79;88.37;95869.66;299395;253;63011;-67
2021/02/02 23:59:58;;;;;;;0.50;0.50;;;;;;;7.76;88.17;95889.16;299395;202;63008;-67
